sensor_id;sensor_type;location;lat;lon;timestamp;P1;durP1;ratioP1;P2;durP2;ratioP2
76236;SDS011;65038;53.200;6.530;2023-06-04T00:02:24;11.98;;;3.05;;
76236;SDS011;65038;53.200;6.530;2023-06-04T00:04:50;9.32;;;2.90;;
76236;SDS011;65038;53.200;6.530;2023-06-04T00:07:16;9.95;;;2.80;;
76236;SDS011;65038;53.200;6.530;2023-06-04T00:09:42;7.78;;;2.63;;
76236;SDS011;65038;53.200;6.530;2023-06-04T00:12:10;8.57;;;2.60;;
76236;SDS011;65038;53.200;6.530;2023-06-04T00:14:36;9.75;;;3.40;;
76236;SDS011;65038;53.200;6.530;2023-06-04T00:17:02;10.40;;;2.55;;
76236;SDS011;65038;53.200;6.530;2023-06-04T00:19:28;12.25;;;3.30;;
76236;SDS011;65038;53.200;6.530;2023-06-04T00:21:54;8.88;;;2.90;;
76236;SDS011;65038;53.200;6.530;2023-06-04T00:24:20;11.23;;;3.28;;
76236;SDS011;65038;53.200;6.530;2023-06-04T00:26:46;10.25;;;3.30;;
76236;SDS011;65038;53.200;6.530;2023-06-04T00:29:12;10.90;;;3.10;;
76236;SDS011;65038;53.200;6.530;2023-06-04T00:31:38;8.27;;;2.85;;
76236;SDS011;65038;53.200;6.530;2023-06-04T00:34:04;10.27;;;3.10;;
76236;SDS011;65038;53.200;6.530;2023-06-04T00:36:30;9.20;;;3.15;;
76236;SDS011;65038;53.200;6.530;2023-06-04T00:38:56;9.95;;;3.08;;
76236;SDS011;65038;53.200;6.530;2023-06-04T00:41:22;11.90;;;3.30;;
76236;SDS011;65038;53.200;6.530;2023-06-04T00:43:49;8.73;;;3.42;;
76236;SDS011;65038;53.200;6.530;2023-06-04T00:46:22;8.70;;;3.22;;
76236;SDS011;65038;53.200;6.530;2023-06-04T00:48:48;7.80;;;3.35;;
76236;SDS011;65038;53.200;6.530;2023-06-04T00:51:14;9.63;;;3.17;;
76236;SDS011;65038;53.200;6.530;2023-06-04T00:53:40;9.63;;;3.40;;
76236;SDS011;65038;53.200;6.530;2023-06-04T00:56:06;9.38;;;3.45;;
76236;SDS011;65038;53.200;6.530;2023-06-04T00:58:39;10.70;;;3.78;;
76236;SDS011;65038;53.200;6.530;2023-06-04T01:01:07;10.57;;;3.67;;
76236;SDS011;65038;53.200;6.530;2023-06-04T01:03:34;11.13;;;3.92;;
76236;SDS011;65038;53.200;6.530;2023-06-04T01:08:28;11.63;;;3.70;;
76236;SDS011;65038;53.200;6.530;2023-06-04T01:10:55;11.88;;;4.25;;
76236;SDS011;65038;53.200;6.530;2023-06-04T01:13:21;11.98;;;4.18;;
76236;SDS011;65038;53.200;6.530;2023-06-04T01:15:47;8.70;;;3.72;;
76236;SDS011;65038;53.200;6.530;2023-06-04T01:18:18;11.00;;;4.10;;
76236;SDS011;65038;53.200;6.530;2023-06-04T01:21:05;10.63;;;4.00;;
76236;SDS011;65038;53.200;6.530;2023-06-04T01:23:40;12.73;;;3.72;;
76236;SDS011;65038;53.200;6.530;2023-06-04T01:26:11;10.13;;;3.63;;
76236;SDS011;65038;53.200;6.530;2023-06-04T01:28:38;10.05;;;4.10;;
76236;SDS011;65038;53.200;6.530;2023-06-04T01:31:04;9.02;;;3.70;;
76236;SDS011;65038;53.200;6.530;2023-06-04T01:33:34;10.90;;;4.10;;
76236;SDS011;65038;53.200;6.530;2023-06-04T01:36:00;9.73;;;3.88;;
76236;SDS011;65038;53.200;6.530;2023-06-04T01:38:27;9.50;;;3.70;;
76236;SDS011;65038;53.200;6.530;2023-06-04T01:40:53;13.98;;;3.65;;
76236;SDS011;65038;53.200;6.530;2023-06-04T01:43:21;9.18;;;4.30;;
76236;SDS011;65038;53.200;6.530;2023-06-04T01:45:47;10.63;;;4.30;;
76236;SDS011;65038;53.200;6.530;2023-06-04T01:48:13;11.30;;;4.25;;
76236;SDS011;65038;53.200;6.530;2023-06-04T01:50:40;11.05;;;4.13;;
76236;SDS011;65038;53.200;6.530;2023-06-04T01:53:06;11.93;;;4.53;;
76236;SDS011;65038;53.200;6.530;2023-06-04T01:55:32;11.23;;;4.38;;
76236;SDS011;65038;53.200;6.530;2023-06-04T01:57:59;12.20;;;4.28;;
76236;SDS011;65038;53.200;6.530;2023-06-04T02:00:25;9.68;;;4.55;;
76236;SDS011;65038;53.200;6.530;2023-06-04T02:02:51;10.25;;;4.30;;
76236;SDS011;65038;53.200;6.530;2023-06-04T02:05:20;11.02;;;4.88;;
76236;SDS011;65038;53.200;6.530;2023-06-04T02:07:46;10.90;;;4.40;;
76236;SDS011;65038;53.200;6.530;2023-06-04T02:10:13;14.25;;;5.20;;
76236;SDS011;65038;53.200;6.530;2023-06-04T02:12:40;11.00;;;4.70;;
76236;SDS011;65038;53.200;6.530;2023-06-04T02:15:09;10.25;;;4.68;;
76236;SDS011;65038;53.200;6.530;2023-06-04T02:17:36;13.55;;;5.18;;
76236;SDS011;65038;53.200;6.530;2023-06-04T02:20:07;12.25;;;5.20;;
76236;SDS011;65038;53.200;6.530;2023-06-04T02:22:34;9.00;;;4.80;;
76236;SDS011;65038;53.200;6.530;2023-06-04T02:25:00;11.70;;;5.22;;
76236;SDS011;65038;53.200;6.530;2023-06-04T02:27:26;10.80;;;5.30;;
76236;SDS011;65038;53.200;6.530;2023-06-04T02:29:53;10.77;;;5.07;;
76236;SDS011;65038;53.200;6.530;2023-06-04T02:32:19;10.50;;;4.90;;
76236;SDS011;65038;53.200;6.530;2023-06-04T02:34:45;9.95;;;4.65;;
76236;SDS011;65038;53.200;6.530;2023-06-04T02:37:11;13.43;;;4.85;;
76236;SDS011;65038;53.200;6.530;2023-06-04T02:39:37;9.85;;;4.75;;
76236;SDS011;65038;53.200;6.530;2023-06-04T02:42:03;10.60;;;4.63;;
76236;SDS011;65038;53.200;6.530;2023-06-04T02:44:29;13.45;;;4.88;;
76236;SDS011;65038;53.200;6.530;2023-06-04T02:46:55;10.73;;;4.75;;
76236;SDS011;65038;53.200;6.530;2023-06-04T02:49:22;11.48;;;4.38;;
76236;SDS011;65038;53.200;6.530;2023-06-04T02:51:48;10.40;;;4.57;;
76236;SDS011;65038;53.200;6.530;2023-06-04T02:54:14;12.63;;;5.40;;
76236;SDS011;65038;53.200;6.530;2023-06-04T02:56:41;9.48;;;4.30;;
76236;SDS011;65038;53.200;6.530;2023-06-04T02:59:08;12.18;;;5.00;;
76236;SDS011;65038;53.200;6.530;2023-06-04T03:01:34;10.98;;;4.93;;
76236;SDS011;65038;53.200;6.530;2023-06-04T03:04:00;11.65;;;4.88;;
76236;SDS011;65038;53.200;6.530;2023-06-04T03:06:29;15.10;;;5.30;;
76236;SDS011;65038;53.200;6.530;2023-06-04T03:08:57;10.93;;;5.13;;
76236;SDS011;65038;53.200;6.530;2023-06-04T03:11:23;11.15;;;4.95;;
76236;SDS011;65038;53.200;6.530;2023-06-04T03:13:50;16.08;;;5.55;;
76236;SDS011;65038;53.200;6.530;2023-06-04T03:16:17;13.98;;;5.68;;
76236;SDS011;65038;53.200;6.530;2023-06-04T03:18:44;12.13;;;5.45;;
76236;SDS011;65038;53.200;6.530;2023-06-04T03:21:10;13.25;;;5.43;;
76236;SDS011;65038;53.200;6.530;2023-06-04T03:23:36;12.32;;;5.25;;
76236;SDS011;65038;53.200;6.530;2023-06-04T03:26:03;14.20;;;5.50;;
76236;SDS011;65038;53.200;6.530;2023-06-04T03:28:30;11.50;;;5.00;;
76236;SDS011;65038;53.200;6.530;2023-06-04T03:30:56;11.93;;;5.07;;
76236;SDS011;65038;53.200;6.530;2023-06-04T03:33:23;10.38;;;5.22;;
76236;SDS011;65038;53.200;6.530;2023-06-04T03:35:50;11.32;;;4.93;;
76236;SDS011;65038;53.200;6.530;2023-06-04T03:38:16;10.25;;;5.30;;
76236;SDS011;65038;53.200;6.530;2023-06-04T03:40:42;11.93;;;4.97;;
76236;SDS011;65038;53.200;6.530;2023-06-04T03:43:08;10.88;;;5.32;;
76236;SDS011;65038;53.200;6.530;2023-06-04T03:45:35;10.68;;;5.03;;
76236;SDS011;65038;53.200;6.530;2023-06-04T03:48:01;11.35;;;4.57;;
76236;SDS011;65038;53.200;6.530;2023-06-04T03:50:27;13.18;;;5.10;;
76236;SDS011;65038;53.200;6.530;2023-06-04T03:52:53;13.30;;;5.78;;
76236;SDS011;65038;53.200;6.530;2023-06-04T03:55:19;10.27;;;4.82;;
76236;SDS011;65038;53.200;6.530;2023-06-04T03:57:45;12.15;;;5.15;;
76236;SDS011;65038;53.200;6.530;2023-06-04T04:00:11;12.30;;;5.10;;
76236;SDS011;65038;53.200;6.530;2023-06-04T04:02:38;8.10;;;4.57;;
76236;SDS011;65038;53.200;6.530;2023-06-04T04:05:05;10.25;;;4.78;;
76236;SDS011;65038;53.200;6.530;2023-06-04T04:07:31;10.52;;;4.43;;
76236;SDS011;65038;53.200;6.530;2023-06-04T04:09:57;11.73;;;5.18;;
76236;SDS011;65038;53.200;6.530;2023-06-04T04:12:23;10.73;;;4.40;;
76236;SDS011;65038;53.200;6.530;2023-06-04T04:14:49;9.80;;;4.90;;
76236;SDS011;65038;53.200;6.530;2023-06-04T04:17:15;12.07;;;4.63;;
76236;SDS011;65038;53.200;6.530;2023-06-04T04:19:41;11.82;;;5.10;;
76236;SDS011;65038;53.200;6.530;2023-06-04T04:22:07;12.63;;;5.00;;
76236;SDS011;65038;53.200;6.530;2023-06-04T04:24:34;12.32;;;5.78;;
76236;SDS011;65038;53.200;6.530;2023-06-04T04:27:04;13.40;;;5.70;;
76236;SDS011;65038;53.200;6.530;2023-06-04T04:29:31;11.20;;;5.40;;
76236;SDS011;65038;53.200;6.530;2023-06-04T04:32:00;10.02;;;5.35;;
76236;SDS011;65038;53.200;6.530;2023-06-04T04:34:35;11.10;;;5.13;;
76236;SDS011;65038;53.200;6.530;2023-06-04T04:37:02;10.20;;;5.32;;
76236;SDS011;65038;53.200;6.530;2023-06-04T04:39:28;12.48;;;5.40;;
76236;SDS011;65038;53.200;6.530;2023-06-04T04:41:54;13.85;;;5.43;;
76236;SDS011;65038;53.200;6.530;2023-06-04T04:44:21;10.85;;;5.60;;
76236;SDS011;65038;53.200;6.530;2023-06-04T04:46:50;11.73;;;5.75;;
76236;SDS011;65038;53.200;6.530;2023-06-04T04:49:16;11.13;;;5.60;;
76236;SDS011;65038;53.200;6.530;2023-06-04T04:51:42;9.27;;;4.85;;
76236;SDS011;65038;53.200;6.530;2023-06-04T04:54:08;9.75;;;5.07;;
76236;SDS011;65038;53.200;6.530;2023-06-04T04:56:34;11.60;;;5.55;;
76236;SDS011;65038;53.200;6.530;2023-06-04T04:59:00;9.93;;;6.10;;
76236;SDS011;65038;53.200;6.530;2023-06-04T05:01:26;11.93;;;6.53;;
76236;SDS011;65038;53.200;6.530;2023-06-04T05:03:52;11.45;;;6.30;;
76236;SDS011;65038;53.200;6.530;2023-06-04T05:06:18;14.75;;;6.35;;
76236;SDS011;65038;53.200;6.530;2023-06-04T05:08:45;13.15;;;7.38;;
76236;SDS011;65038;53.200;6.530;2023-06-04T05:11:11;14.55;;;7.15;;
76236;SDS011;65038;53.200;6.530;2023-06-04T05:13:38;14.45;;;8.25;;
76236;SDS011;65038;53.200;6.530;2023-06-04T05:16:04;16.05;;;7.68;;
76236;SDS011;65038;53.200;6.530;2023-06-04T05:18:36;14.93;;;7.60;;
76236;SDS011;65038;53.200;6.530;2023-06-04T05:21:05;12.55;;;7.75;;
76236;SDS011;65038;53.200;6.530;2023-06-04T05:23:32;15.65;;;8.27;;
76236;SDS011;65038;53.200;6.530;2023-06-04T05:25:59;16.10;;;8.02;;
76236;SDS011;65038;53.200;6.530;2023-06-04T05:28:26;18.67;;;8.07;;
76236;SDS011;65038;53.200;6.530;2023-06-04T05:30:53;13.73;;;7.18;;
76236;SDS011;65038;53.200;6.530;2023-06-04T05:33:27;14.93;;;6.95;;
76236;SDS011;65038;53.200;6.530;2023-06-04T05:35:55;15.15;;;6.53;;
76236;SDS011;65038;53.200;6.530;2023-06-04T05:38:22;13.82;;;6.30;;
76236;SDS011;65038;53.200;6.530;2023-06-04T05:40:53;15.57;;;6.20;;
76236;SDS011;65038;53.200;6.530;2023-06-04T05:43:19;12.57;;;6.13;;
76236;SDS011;65038;53.200;6.530;2023-06-04T05:45:45;12.13;;;5.43;;
76236;SDS011;65038;53.200;6.530;2023-06-04T05:48:11;10.88;;;5.50;;
76236;SDS011;65038;53.200;6.530;2023-06-04T05:50:37;10.38;;;5.05;;
76236;SDS011;65038;53.200;6.530;2023-06-04T05:53:03;13.90;;;5.25;;
76236;SDS011;65038;53.200;6.530;2023-06-04T05:55:29;14.05;;;5.25;;
76236;SDS011;65038;53.200;6.530;2023-06-04T05:57:55;12.60;;;5.30;;
76236;SDS011;65038;53.200;6.530;2023-06-04T06:00:21;11.40;;;4.28;;
76236;SDS011;65038;53.200;6.530;2023-06-04T06:02:51;9.23;;;3.80;;
76236;SDS011;65038;53.200;6.530;2023-06-04T06:05:18;9.00;;;3.78;;
76236;SDS011;65038;53.200;6.530;2023-06-04T06:07:44;11.27;;;4.15;;
76236;SDS011;65038;53.200;6.530;2023-06-04T06:10:10;11.18;;;3.65;;
76236;SDS011;65038;53.200;6.530;2023-06-04T06:12:37;11.95;;;3.45;;
76236;SDS011;65038;53.200;6.530;2023-06-04T06:15:03;10.70;;;3.88;;
76236;SDS011;65038;53.200;6.530;2023-06-04T06:17:30;9.18;;;3.30;;
76236;SDS011;65038;53.200;6.530;2023-06-04T06:19:56;9.73;;;3.17;;
76236;SDS011;65038;53.200;6.530;2023-06-04T06:22:22;8.00;;;3.28;;
76236;SDS011;65038;53.200;6.530;2023-06-04T06:24:48;7.57;;;3.10;;
76236;SDS011;65038;53.200;6.530;2023-06-04T06:27:14;9.55;;;3.15;;
76236;SDS011;65038;53.200;6.530;2023-06-04T06:29:41;8.93;;;2.90;;
76236;SDS011;65038;53.200;6.530;2023-06-04T06:32:07;7.40;;;2.78;;
76236;SDS011;65038;53.200;6.530;2023-06-04T06:34:34;7.70;;;2.92;;
76236;SDS011;65038;53.200;6.530;2023-06-04T06:37:00;6.68;;;3.00;;
76236;SDS011;65038;53.200;6.530;2023-06-04T06:39:26;9.45;;;3.15;;
76236;SDS011;65038;53.200;6.530;2023-06-04T06:41:52;7.43;;;3.08;;
76236;SDS011;65038;53.200;6.530;2023-06-04T06:44:18;8.38;;;2.53;;
76236;SDS011;65038;53.200;6.530;2023-06-04T06:46:44;9.70;;;3.33;;
76236;SDS011;65038;53.200;6.530;2023-06-04T06:49:10;8.35;;;2.80;;
76236;SDS011;65038;53.200;6.530;2023-06-04T06:51:36;10.65;;;2.80;;
76236;SDS011;65038;53.200;6.530;2023-06-04T06:54:02;10.65;;;3.10;;
76236;SDS011;65038;53.200;6.530;2023-06-04T06:56:28;9.13;;;3.25;;
76236;SDS011;65038;53.200;6.530;2023-06-04T06:58:55;6.32;;;2.60;;
76236;SDS011;65038;53.200;6.530;2023-06-04T07:01:21;8.50;;;2.88;;
76236;SDS011;65038;53.200;6.530;2023-06-04T07:03:47;8.05;;;2.70;;
76236;SDS011;65038;53.200;6.530;2023-06-04T07:06:13;8.02;;;2.58;;
76236;SDS011;65038;53.200;6.530;2023-06-04T07:08:39;9.57;;;2.50;;
76236;SDS011;65038;53.200;6.530;2023-06-04T07:11:07;8.00;;;2.50;;
76236;SDS011;65038;53.200;6.530;2023-06-04T07:13:36;8.10;;;2.33;;
76236;SDS011;65038;53.200;6.530;2023-06-04T07:16:02;5.80;;;2.10;;
76236;SDS011;65038;53.200;6.530;2023-06-04T07:18:28;10.82;;;2.35;;
76236;SDS011;65038;53.200;6.530;2023-06-04T07:20:54;6.15;;;1.90;;
76236;SDS011;65038;53.200;6.530;2023-06-04T07:23:20;6.07;;;1.73;;
76236;SDS011;65038;53.200;6.530;2023-06-04T07:25:46;4.78;;;1.80;;
76236;SDS011;65038;53.200;6.530;2023-06-04T07:28:13;5.07;;;1.77;;
76236;SDS011;65038;53.200;6.530;2023-06-04T07:30:39;5.70;;;1.77;;
76236;SDS011;65038;53.200;6.530;2023-06-04T07:33:05;5.07;;;1.60;;
76236;SDS011;65038;53.200;6.530;2023-06-04T07:35:31;7.25;;;1.70;;
76236;SDS011;65038;53.200;6.530;2023-06-04T07:37:57;6.65;;;1.80;;
76236;SDS011;65038;53.200;6.530;2023-06-04T07:40:23;5.97;;;1.80;;
76236;SDS011;65038;53.200;6.530;2023-06-04T07:42:49;5.57;;;1.90;;
76236;SDS011;65038;53.200;6.530;2023-06-04T07:45:15;5.88;;;2.03;;
76236;SDS011;65038;53.200;6.530;2023-06-04T07:47:42;5.63;;;1.80;;
76236;SDS011;65038;53.200;6.530;2023-06-04T07:50:08;9.55;;;1.88;;
76236;SDS011;65038;53.200;6.530;2023-06-04T07:52:35;4.80;;;1.80;;
76236;SDS011;65038;53.200;6.530;2023-06-04T07:55:01;5.90;;;1.75;;
76236;SDS011;65038;53.200;6.530;2023-06-04T07:57:27;4.88;;;1.80;;
76236;SDS011;65038;53.200;6.530;2023-06-04T07:59:53;5.03;;;1.50;;
76236;SDS011;65038;53.200;6.530;2023-06-04T08:02:19;5.82;;;1.85;;
76236;SDS011;65038;53.200;6.530;2023-06-04T08:04:45;6.00;;;1.95;;
76236;SDS011;65038;53.200;6.530;2023-06-04T08:07:11;6.30;;;2.05;;
76236;SDS011;65038;53.200;6.530;2023-06-04T08:09:37;5.88;;;2.13;;
76236;SDS011;65038;53.200;6.530;2023-06-04T08:12:04;5.95;;;1.90;;
76236;SDS011;65038;53.200;6.530;2023-06-04T08:14:30;8.02;;;1.80;;
76236;SDS011;65038;53.200;6.530;2023-06-04T08:16:57;6.85;;;2.20;;
76236;SDS011;65038;53.200;6.530;2023-06-04T08:19:23;5.35;;;1.52;;
76236;SDS011;65038;53.200;6.530;2023-06-04T08:21:49;7.53;;;1.80;;
76236;SDS011;65038;53.200;6.530;2023-06-04T08:24:15;7.88;;;2.20;;
76236;SDS011;65038;53.200;6.530;2023-06-04T08:26:41;5.35;;;2.00;;
76236;SDS011;65038;53.200;6.530;2023-06-04T08:29:07;5.07;;;1.80;;
76236;SDS011;65038;53.200;6.530;2023-06-04T08:31:33;5.90;;;1.90;;
76236;SDS011;65038;53.200;6.530;2023-06-04T08:33:59;5.82;;;1.90;;
76236;SDS011;65038;53.200;6.530;2023-06-04T08:36:26;5.20;;;2.05;;
76236;SDS011;65038;53.200;6.530;2023-06-04T08:38:53;6.05;;;1.70;;
76236;SDS011;65038;53.200;6.530;2023-06-04T08:41:22;7.07;;;1.65;;
76236;SDS011;65038;53.200;6.530;2023-06-04T08:43:51;6.53;;;1.67;;
76236;SDS011;65038;53.200;6.530;2023-06-04T08:46:18;5.05;;;1.67;;
76236;SDS011;65038;53.200;6.530;2023-06-04T08:48:45;6.25;;;1.70;;
76236;SDS011;65038;53.200;6.530;2023-06-04T08:51:11;6.38;;;2.10;;
76236;SDS011;65038;53.200;6.530;2023-06-04T08:53:37;5.28;;;1.60;;
76236;SDS011;65038;53.200;6.530;2023-06-04T08:56:03;6.38;;;1.70;;
76236;SDS011;65038;53.200;6.530;2023-06-04T08:58:30;3.97;;;1.50;;
76236;SDS011;65038;53.200;6.530;2023-06-04T09:00:58;6.07;;;1.80;;
76236;SDS011;65038;53.200;6.530;2023-06-04T09:03:24;4.57;;;1.63;;
76236;SDS011;65038;53.200;6.530;2023-06-04T09:05:51;4.38;;;1.60;;
76236;SDS011;65038;53.200;6.530;2023-06-04T09:08:18;4.28;;;1.58;;
76236;SDS011;65038;53.200;6.530;2023-06-04T09:10:45;4.88;;;1.65;;
76236;SDS011;65038;53.200;6.530;2023-06-04T09:13:14;4.95;;;1.60;;
76236;SDS011;65038;53.200;6.530;2023-06-04T09:15:41;6.85;;;1.42;;
76236;SDS011;65038;53.200;6.530;2023-06-04T09:18:07;5.25;;;1.52;;
76236;SDS011;65038;53.200;6.530;2023-06-04T09:20:33;4.95;;;1.30;;
76236;SDS011;65038;53.200;6.530;2023-06-04T09:22:59;4.65;;;1.50;;
76236;SDS011;65038;53.200;6.530;2023-06-04T09:25:26;6.13;;;1.35;;
76236;SDS011;65038;53.200;6.530;2023-06-04T09:27:52;4.47;;;1.60;;
76236;SDS011;65038;53.200;6.530;2023-06-04T09:30:20;4.22;;;1.63;;
76236;SDS011;65038;53.200;6.530;2023-06-04T09:32:46;4.90;;;1.70;;
76236;SDS011;65038;53.200;6.530;2023-06-04T09:35:16;4.07;;;1.48;;
76236;SDS011;65038;53.200;6.530;2023-06-04T09:37:43;4.72;;;1.48;;
76236;SDS011;65038;53.200;6.530;2023-06-04T09:40:16;5.13;;;1.52;;
76236;SDS011;65038;53.200;6.530;2023-06-04T09:42:43;5.15;;;1.60;;
76236;SDS011;65038;53.200;6.530;2023-06-04T09:45:09;5.30;;;1.60;;
76236;SDS011;65038;53.200;6.530;2023-06-04T09:47:42;4.05;;;1.35;;
76236;SDS011;65038;53.200;6.530;2023-06-04T09:50:09;4.38;;;1.58;;
76236;SDS011;65038;53.200;6.530;2023-06-04T09:52:35;3.58;;;1.58;;
76236;SDS011;65038;53.200;6.530;2023-06-04T09:55:02;3.70;;;1.58;;
76236;SDS011;65038;53.200;6.530;2023-06-04T09:57:29;4.35;;;1.50;;
76236;SDS011;65038;53.200;6.530;2023-06-04T09:59:57;3.05;;;1.30;;
76236;SDS011;65038;53.200;6.530;2023-06-04T10:02:23;5.18;;;1.40;;
76236;SDS011;65038;53.200;6.530;2023-06-04T10:04:53;4.28;;;1.30;;
76236;SDS011;65038;53.200;6.530;2023-06-04T10:07:22;3.58;;;1.33;;
76236;SDS011;65038;53.200;6.530;2023-06-04T10:09:49;5.20;;;1.65;;
76236;SDS011;65038;53.200;6.530;2023-06-04T10:12:16;4.63;;;1.35;;
76236;SDS011;65038;53.200;6.530;2023-06-04T10:14:48;4.88;;;1.50;;
76236;SDS011;65038;53.200;6.530;2023-06-04T10:17:15;4.55;;;1.42;;
76236;SDS011;65038;53.200;6.530;2023-06-04T10:19:43;4.38;;;1.60;;
76236;SDS011;65038;53.200;6.530;2023-06-04T10:22:10;4.35;;;1.60;;
76236;SDS011;65038;53.200;6.530;2023-06-04T10:24:39;5.00;;;1.42;;
76236;SDS011;65038;53.200;6.530;2023-06-04T10:27:05;4.03;;;1.60;;
76236;SDS011;65038;53.200;6.530;2023-06-04T10:29:36;4.65;;;1.45;;
76236;SDS011;65038;53.200;6.530;2023-06-04T10:32:02;5.22;;;1.40;;
76236;SDS011;65038;53.200;6.530;2023-06-04T10:34:29;3.72;;;1.50;;
76236;SDS011;65038;53.200;6.530;2023-06-04T10:36:56;4.32;;;1.38;;
76236;SDS011;65038;53.200;6.530;2023-06-04T10:39:28;5.30;;;1.55;;
76236;SDS011;65038;53.200;6.530;2023-06-04T10:41:58;3.60;;;1.33;;
76236;SDS011;65038;53.200;6.530;2023-06-04T10:44:25;5.18;;;1.73;;
76236;SDS011;65038;53.200;6.530;2023-06-04T10:46:51;4.53;;;1.55;;
76236;SDS011;65038;53.200;6.530;2023-06-04T10:49:25;3.65;;;1.33;;
76236;SDS011;65038;53.200;6.530;2023-06-04T10:51:52;3.85;;;1.52;;
76236;SDS011;65038;53.200;6.530;2023-06-04T10:54:24;4.72;;;1.52;;
76236;SDS011;65038;53.200;6.530;2023-06-04T10:56:51;5.40;;;1.52;;
76236;SDS011;65038;53.200;6.530;2023-06-04T10:59:17;5.10;;;1.60;;
76236;SDS011;65038;53.200;6.530;2023-06-04T11:01:44;4.05;;;1.40;;
76236;SDS011;65038;53.200;6.530;2023-06-04T11:04:20;4.75;;;1.55;;
76236;SDS011;65038;53.200;6.530;2023-06-04T11:06:46;4.85;;;1.42;;
76236;SDS011;65038;53.200;6.530;2023-06-04T11:09:13;3.75;;;1.35;;
76236;SDS011;65038;53.200;6.530;2023-06-04T11:11:42;4.65;;;1.50;;
76236;SDS011;65038;53.200;6.530;2023-06-04T11:14:09;5.05;;;1.40;;
76236;SDS011;65038;53.200;6.530;2023-06-04T11:16:36;4.13;;;1.50;;
76236;SDS011;65038;53.200;6.530;2023-06-04T11:19:02;5.05;;;1.70;;
76236;SDS011;65038;53.200;6.530;2023-06-04T11:21:29;4.70;;;1.65;;
76236;SDS011;65038;53.200;6.530;2023-06-04T11:23:57;3.58;;;1.58;;
76236;SDS011;65038;53.200;6.530;2023-06-04T11:26:34;5.90;;;1.85;;
76236;SDS011;65038;53.200;6.530;2023-06-04T11:29:00;4.57;;;1.40;;
76236;SDS011;65038;53.200;6.530;2023-06-04T11:31:26;4.22;;;1.50;;
76236;SDS011;65038;53.200;6.530;2023-06-04T11:33:52;5.30;;;1.38;;
76236;SDS011;65038;53.200;6.530;2023-06-04T11:36:26;4.03;;;1.40;;
76236;SDS011;65038;53.200;6.530;2023-06-04T11:38:58;4.82;;;1.40;;
76236;SDS011;65038;53.200;6.530;2023-06-04T11:41:33;3.60;;;1.30;;
76236;SDS011;65038;53.200;6.530;2023-06-04T11:44:03;3.25;;;1.30;;
76236;SDS011;65038;53.200;6.530;2023-06-04T11:46:30;3.95;;;1.50;;
76236;SDS011;65038;53.200;6.530;2023-06-04T11:48:57;4.20;;;1.40;;
76236;SDS011;65038;53.200;6.530;2023-06-04T11:51:23;3.17;;;1.40;;
76236;SDS011;65038;53.200;6.530;2023-06-04T11:53:50;5.22;;;1.50;;
76236;SDS011;65038;53.200;6.530;2023-06-04T11:56:16;5.13;;;1.38;;
76236;SDS011;65038;53.200;6.530;2023-06-04T11:58:42;5.25;;;1.50;;
76236;SDS011;65038;53.200;6.530;2023-06-04T12:01:11;2.83;;;1.30;;
76236;SDS011;65038;53.200;6.530;2023-06-04T12:03:41;4.13;;;1.50;;
76236;SDS011;65038;53.200;6.530;2023-06-04T12:06:17;4.32;;;1.30;;
76236;SDS011;65038;53.200;6.530;2023-06-04T12:08:51;4.00;;;1.60;;
76236;SDS011;65038;53.200;6.530;2023-06-04T12:13:55;4.57;;;1.48;;
76236;SDS011;65038;53.200;6.530;2023-06-04T12:16:22;4.20;;;1.55;;
76236;SDS011;65038;53.200;6.530;2023-06-04T12:18:48;3.90;;;1.40;;
76236;SDS011;65038;53.200;6.530;2023-06-04T12:23:44;3.72;;;1.33;;
76236;SDS011;65038;53.200;6.530;2023-06-04T12:26:23;3.75;;;1.40;;
76236;SDS011;65038;53.200;6.530;2023-06-04T12:29:00;5.32;;;1.60;;
76236;SDS011;65038;53.200;6.530;2023-06-04T12:31:26;5.63;;;1.70;;
76236;SDS011;65038;53.200;6.530;2023-06-04T12:33:57;3.60;;;1.70;;
76236;SDS011;65038;53.200;6.530;2023-06-04T12:36:23;4.97;;;1.50;;
76236;SDS011;65038;53.200;6.530;2023-06-04T12:38:49;4.32;;;1.60;;
76236;SDS011;65038;53.200;6.530;2023-06-04T12:41:15;3.78;;;1.45;;
76236;SDS011;65038;53.200;6.530;2023-06-04T12:43:41;4.28;;;1.30;;
76236;SDS011;65038;53.200;6.530;2023-06-04T12:46:07;5.88;;;1.40;;
76236;SDS011;65038;53.200;6.530;2023-06-04T12:48:34;5.10;;;1.35;;
76236;SDS011;65038;53.200;6.530;2023-06-04T12:51:00;4.05;;;1.55;;
76236;SDS011;65038;53.200;6.530;2023-06-04T12:53:26;3.22;;;1.27;;
76236;SDS011;65038;53.200;6.530;2023-06-04T12:55:52;4.82;;;1.67;;
76236;SDS011;65038;53.200;6.530;2023-06-04T12:58:18;4.10;;;1.35;;
76236;SDS011;65038;53.200;6.530;2023-06-04T13:00:44;4.10;;;1.40;;
76236;SDS011;65038;53.200;6.530;2023-06-04T13:03:10;6.95;;;1.60;;
76236;SDS011;65038;53.200;6.530;2023-06-04T13:05:36;2.97;;;1.30;;
76236;SDS011;65038;53.200;6.530;2023-06-04T13:08:02;4.20;;;1.50;;
76236;SDS011;65038;53.200;6.530;2023-06-04T13:10:28;3.83;;;1.30;;
76236;SDS011;65038;53.200;6.530;2023-06-04T13:12:54;4.75;;;1.50;;
76236;SDS011;65038;53.200;6.530;2023-06-04T13:15:20;3.63;;;1.40;;
76236;SDS011;65038;53.200;6.530;2023-06-04T13:17:47;5.22;;;1.70;;
76236;SDS011;65038;53.200;6.530;2023-06-04T13:20:13;3.47;;;1.30;;
76236;SDS011;65038;53.200;6.530;2023-06-04T13:22:39;5.78;;;1.70;;
76236;SDS011;65038;53.200;6.530;2023-06-04T13:25:05;5.13;;;1.50;;
76236;SDS011;65038;53.200;6.530;2023-06-04T13:27:31;4.95;;;1.40;;
76236;SDS011;65038;53.200;6.530;2023-06-04T13:29:57;6.10;;;1.50;;
76236;SDS011;65038;53.200;6.530;2023-06-04T13:32:23;4.80;;;1.50;;
76236;SDS011;65038;53.200;6.530;2023-06-04T13:34:49;5.00;;;1.63;;
76236;SDS011;65038;53.200;6.530;2023-06-04T13:37:15;5.80;;;1.70;;
76236;SDS011;65038;53.200;6.530;2023-06-04T13:39:41;4.00;;;1.63;;
76236;SDS011;65038;53.200;6.530;2023-06-04T13:42:07;5.63;;;1.40;;
76236;SDS011;65038;53.200;6.530;2023-06-04T13:44:33;4.15;;;1.55;;
76236;SDS011;65038;53.200;6.530;2023-06-04T13:46:59;4.22;;;1.50;;
76236;SDS011;65038;53.200;6.530;2023-06-04T13:49:26;4.28;;;1.50;;
76236;SDS011;65038;53.200;6.530;2023-06-04T13:51:52;7.50;;;1.77;;
76236;SDS011;65038;53.200;6.530;2023-06-04T13:54:18;4.75;;;1.60;;
76236;SDS011;65038;53.200;6.530;2023-06-04T13:56:44;3.88;;;1.48;;
76236;SDS011;65038;53.200;6.530;2023-06-04T13:59:10;6.45;;;1.60;;
76236;SDS011;65038;53.200;6.530;2023-06-04T14:01:36;7.03;;;1.55;;
76236;SDS011;65038;53.200;6.530;2023-06-04T14:04:02;3.05;;;1.45;;
76236;SDS011;65038;53.200;6.530;2023-06-04T14:06:31;2.90;;;1.40;;
76236;SDS011;65038;53.200;6.530;2023-06-04T14:08:57;5.72;;;1.48;;
76236;SDS011;65038;53.200;6.530;2023-06-04T14:11:23;5.32;;;1.50;;
76236;SDS011;65038;53.200;6.530;2023-06-04T14:13:49;7.35;;;1.63;;
76236;SDS011;65038;53.200;6.530;2023-06-04T14:16:15;5.32;;;1.40;;
76236;SDS011;65038;53.200;6.530;2023-06-04T14:18:41;3.40;;;1.40;;
76236;SDS011;65038;53.200;6.530;2023-06-04T14:21:07;5.00;;;1.48;;
76236;SDS011;65038;53.200;6.530;2023-06-04T14:23:33;4.90;;;1.55;;
76236;SDS011;65038;53.200;6.530;2023-06-04T14:26:01;6.65;;;1.70;;
76236;SDS011;65038;53.200;6.530;2023-06-04T14:28:27;3.50;;;1.25;;
76236;SDS011;65038;53.200;6.530;2023-06-04T14:30:53;4.75;;;1.45;;
76236;SDS011;65038;53.200;6.530;2023-06-04T14:33:19;4.57;;;1.60;;
76236;SDS011;65038;53.200;6.530;2023-06-04T14:35:45;3.78;;;1.33;;
76236;SDS011;65038;53.200;6.530;2023-06-04T14:38:13;5.50;;;1.50;;
76236;SDS011;65038;53.200;6.530;2023-06-04T14:40:40;4.13;;;1.20;;
76236;SDS011;65038;53.200;6.530;2023-06-04T14:43:09;4.57;;;1.60;;
76236;SDS011;65038;53.200;6.530;2023-06-04T14:45:36;4.38;;;1.58;;
76236;SDS011;65038;53.200;6.530;2023-06-04T14:48:03;4.70;;;1.90;;
76236;SDS011;65038;53.200;6.530;2023-06-04T14:50:29;5.38;;;1.80;;